sensor_id;sensor_type;location;lat;lon;timestamp;temperature;humidity
7331;DHT22;3706;49.198;7.064;2023-09-08T00:02:23;14.90;99.90
7331;DHT22;3706;49.198;7.064;2023-09-08T00:04:50;14.90;99.90
7331;DHT22;3706;49.198;7.064;2023-09-08T00:07:17;14.90;99.90
7331;DHT22;3706;49.198;7.064;2023-09-08T00:09:46;14.80;99.90
7331;DHT22;3706;49.198;7.064;2023-09-08T00:12:13;14.70;99.90
7331;DHT22;3706;49.198;7.064;2023-09-08T00:14:40;14.70;99.90
7331;DHT22;3706;49.198;7.064;2023-09-08T00:17:07;14.70;99.90
7331;DHT22;3706;49.198;7.064;2023-09-08T00:19:33;14.70;99.90
7331;DHT22;3706;49.198;7.064;2023-09-08T00:22:00;14.60;99.90
7331;DHT22;3706;49.198;7.064;2023-09-08T00:24:28;14.60;99.90
7331;DHT22;3706;49.198;7.064;2023-09-08T00:26:56;14.60;99.90
7331;DHT22;3706;49.198;7.064;2023-09-08T00:29:23;14.70;99.90
7331;DHT22;3706;49.198;7.064;2023-09-08T00:31:50;14.80;99.90
7331;DHT22;3706;49.198;7.064;2023-09-08T00:34:17;14.90;99.90
7331;DHT22;3706;49.198;7.064;2023-09-08T00:36:44;14.90;99.90
7331;DHT22;3706;49.198;7.064;2023-09-08T00:39:11;14.90;99.90
7331;DHT22;3706;49.198;7.064;2023-09-08T00:41:38;14.90;99.90
7331;DHT22;3706;49.198;7.064;2023-09-08T00:44:06;14.90;99.90
7331;DHT22;3706;49.198;7.064;2023-09-08T00:46:34;14.90;99.90
7331;DHT22;3706;49.198;7.064;2023-09-08T00:49:01;14.80;99.90
7331;DHT22;3706;49.198;7.064;2023-09-08T00:51:28;14.80;99.90
7331;DHT22;3706;49.198;7.064;2023-09-08T00:53:55;14.70;99.90
7331;DHT22;3706;49.198;7.064;2023-09-08T00:56:22;14.50;99.90
7331;DHT22;3706;49.198;7.064;2023-09-08T00:58:49;14.30;99.90
7331;DHT22;3706;49.198;7.064;2023-09-08T01:01:18;14.20;99.90
7331;DHT22;3706;49.198;7.064;2023-09-08T01:03:45;14.20;99.90
7331;DHT22;3706;49.198;7.064;2023-09-08T01:06:12;14.20;99.90
7331;DHT22;3706;49.198;7.064;2023-09-08T01:08:40;14.20;99.90
7331;DHT22;3706;49.198;7.064;2023-09-08T01:11:07;14.30;99.90
7331;DHT22;3706;49.198;7.064;2023-09-08T01:13:34;14.30;99.90
7331;DHT22;3706;49.198;7.064;2023-09-08T01:16:01;14.30;99.90
7331;DHT22;3706;49.198;7.064;2023-09-08T01:18:29;14.30;99.90
7331;DHT22;3706;49.198;7.064;2023-09-08T01:21:22;14.40;99.90
7331;DHT22;3706;49.198;7.064;2023-09-08T01:24:05;14.40;99.90
7331;DHT22;3706;49.198;7.064;2023-09-08T01:26:40;14.40;99.90
7331;DHT22;3706;49.198;7.064;2023-09-08T01:29:09;14.40;99.90
7331;DHT22;3706;49.198;7.064;2023-09-08T01:31:36;14.30;99.90
7331;DHT22;3706;49.198;7.064;2023-09-08T01:34:04;14.30;99.90
7331;DHT22;3706;49.198;7.064;2023-09-08T01:36:32;14.30;99.90
7331;DHT22;3706;49.198;7.064;2023-09-08T01:39:00;14.20;99.90
7331;DHT22;3706;49.198;7.064;2023-09-08T01:41:27;14.10;99.90
7331;DHT22;3706;49.198;7.064;2023-09-08T01:43:55;14.00;99.90
7331;DHT22;3706;49.198;7.064;2023-09-08T01:46:23;14.00;99.90
7331;DHT22;3706;49.198;7.064;2023-09-08T01:48:50;13.90;99.90
7331;DHT22;3706;49.198;7.064;2023-09-08T01:51:17;13.90;99.90
7331;DHT22;3706;49.198;7.064;2023-09-08T01:53:44;13.80;99.90
7331;DHT22;3706;49.198;7.064;2023-09-08T01:56:11;13.70;99.90
7331;DHT22;3706;49.198;7.064;2023-09-08T01:58:38;13.70;99.90
7331;DHT22;3706;49.198;7.064;2023-09-08T02:01:06;13.70;99.90
7331;DHT22;3706;49.198;7.064;2023-09-08T02:03:33;13.70;99.90
7331;DHT22;3706;49.198;7.064;2023-09-08T02:06:00;13.70;99.90
7331;DHT22;3706;49.198;7.064;2023-09-08T02:08:27;13.70;99.90
7331;DHT22;3706;49.198;7.064;2023-09-08T02:10:54;13.70;99.90
7331;DHT22;3706;49.198;7.064;2023-09-08T02:13:21;13.70;99.90
7331;DHT22;3706;49.198;7.064;2023-09-08T02:15:47;13.70;99.90
7331;DHT22;3706;49.198;7.064;2023-09-08T02:18:16;13.70;99.90
7331;DHT22;3706;49.198;7.064;2023-09-08T02:20:43;13.60;99.90
7331;DHT22;3706;49.198;7.064;2023-09-08T02:23:09;13.60;99.90
7331;DHT22;3706;49.198;7.064;2023-09-08T02:25:36;13.60;99.90
7331;DHT22;3706;49.198;7.064;2023-09-08T02:28:04;13.70;99.90
7331;DHT22;3706;49.198;7.064;2023-09-08T02:30:31;13.80;99.90
7331;DHT22;3706;49.198;7.064;2023-09-08T02:32:58;13.80;99.90
7331;DHT22;3706;49.198;7.064;2023-09-08T02:35:26;13.90;99.90
7331;DHT22;3706;49.198;7.064;2023-09-08T02:37:53;13.90;99.90
7331;DHT22;3706;49.198;7.064;2023-09-08T02:40:20;14.00;99.90
7331;DHT22;3706;49.198;7.064;2023-09-08T02:42:47;13.90;99.90
7331;DHT22;3706;49.198;7.064;2023-09-08T02:45:14;13.80;99.90
7331;DHT22;3706;49.198;7.064;2023-09-08T02:47:41;13.70;99.90
7331;DHT22;3706;49.198;7.064;2023-09-08T02:50:08;13.80;99.90
7331;DHT22;3706;49.198;7.064;2023-09-08T02:52:37;13.70;99.90
7331;DHT22;3706;49.198;7.064;2023-09-08T02:55:04;13.60;99.90
7331;DHT22;3706;49.198;7.064;2023-09-08T02:57:31;13.50;99.90
7331;DHT22;3706;49.198;7.064;2023-09-08T02:59:58;13.50;99.90
7331;DHT22;3706;49.198;7.064;2023-09-08T03:02:25;13.50;99.90
7331;DHT22;3706;49.198;7.064;2023-09-08T03:04:52;13.50;99.90
7331;DHT22;3706;49.198;7.064;2023-09-08T03:07:19;13.50;99.90
7331;DHT22;3706;49.198;7.064;2023-09-08T03:09:47;13.50;99.90
7331;DHT22;3706;49.198;7.064;2023-09-08T03:12:15;13.30;99.90
7331;DHT22;3706;49.198;7.064;2023-09-08T03:14:41;13.30;99.90
7331;DHT22;3706;49.198;7.064;2023-09-08T03:17:09;13.20;99.90
7331;DHT22;3706;49.198;7.064;2023-09-08T03:19:36;13.20;99.90
7331;DHT22;3706;49.198;7.064;2023-09-08T03:22:03;13.20;99.90
7331;DHT22;3706;49.198;7.064;2023-09-08T03:24:30;13.30;99.90
7331;DHT22;3706;49.198;7.064;2023-09-08T03:26:58;13.50;99.90
7331;DHT22;3706;49.198;7.064;2023-09-08T03:29:25;13.60;99.90
7331;DHT22;3706;49.198;7.064;2023-09-08T03:31:52;13.60;99.90
7331;DHT22;3706;49.198;7.064;2023-09-08T03:34:19;13.60;99.90
7331;DHT22;3706;49.198;7.064;2023-09-08T03:36:48;13.50;99.90
7331;DHT22;3706;49.198;7.064;2023-09-08T03:39:15;13.40;99.90
7331;DHT22;3706;49.198;7.064;2023-09-08T03:41:42;13.40;99.90
7331;DHT22;3706;49.198;7.064;2023-09-08T03:44:10;13.30;99.90
7331;DHT22;3706;49.198;7.064;2023-09-08T03:46:37;13.20;99.90
7331;DHT22;3706;49.198;7.064;2023-09-08T03:49:04;13.20;99.90
7331;DHT22;3706;49.198;7.064;2023-09-08T03:51:33;13.20;99.90
7331;DHT22;3706;49.198;7.064;2023-09-08T03:54:00;13.20;99.90
7331;DHT22;3706;49.198;7.064;2023-09-08T03:56:28;13.20;99.90
7331;DHT22;3706;49.198;7.064;2023-09-08T03:58:55;13.00;99.90
7331;DHT22;3706;49.198;7.064;2023-09-08T04:01:23;12.90;99.90
7331;DHT22;3706;49.198;7.064;2023-09-08T04:03:50;12.90;99.90
7331;DHT22;3706;49.198;7.064;2023-09-08T04:06:17;12.80;99.90
7331;DHT22;3706;49.198;7.064;2023-09-08T04:08:44;12.80;99.90
7331;DHT22;3706;49.198;7.064;2023-09-08T04:11:11;12.80;99.90
7331;DHT22;3706;49.198;7.064;2023-09-08T04:13:38;12.80;99.90
7331;DHT22;3706;49.198;7.064;2023-09-08T04:16:05;12.70;99.90
7331;DHT22;3706;49.198;7.064;2023-09-08T04:18:33;12.70;99.90
7331;DHT22;3706;49.198;7.064;2023-09-08T04:21:00;12.70;99.90
7331;DHT22;3706;49.198;7.064;2023-09-08T04:23:27;12.70;99.90
7331;DHT22;3706;49.198;7.064;2023-09-08T04:25:54;12.70;99.90
7331;DHT22;3706;49.198;7.064;2023-09-08T04:28:21;12.60;99.90
7331;DHT22;3706;49.198;7.064;2023-09-08T04:30:48;12.60;99.90
7331;DHT22;3706;49.198;7.064;2023-09-08T04:33:15;12.60;99.90
7331;DHT22;3706;49.198;7.064;2023-09-08T04:35:43;12.60;99.90
7331;DHT22;3706;49.198;7.064;2023-09-08T04:38:10;12.60;99.90
7331;DHT22;3706;49.198;7.064;2023-09-08T04:40:40;12.60;99.90
7331;DHT22;3706;49.198;7.064;2023-09-08T04:43:07;12.50;99.90
7331;DHT22;3706;49.198;7.064;2023-09-08T04:45:34;12.40;99.90
7331;DHT22;3706;49.198;7.064;2023-09-08T04:48:01;12.40;99.90
7331;DHT22;3706;49.198;7.064;2023-09-08T04:50:28;12.40;99.90
7331;DHT22;3706;49.198;7.064;2023-09-08T04:52:57;12.40;99.90
7331;DHT22;3706;49.198;7.064;2023-09-08T04:55:23;12.50;99.90
7331;DHT22;3706;49.198;7.064;2023-09-08T04:57:50;12.70;99.90
7331;DHT22;3706;49.198;7.064;2023-09-08T05:00:17;12.90;99.90
7331;DHT22;3706;49.198;7.064;2023-09-08T05:02:44;12.90;99.90
7331;DHT22;3706;49.198;7.064;2023-09-08T05:05:13;12.90;99.90
7331;DHT22;3706;49.198;7.064;2023-09-08T05:07:40;12.80;99.90
7331;DHT22;3706;49.198;7.064;2023-09-08T05:10:09;12.80;99.90
7331;DHT22;3706;49.198;7.064;2023-09-08T05:12:36;12.80;99.90
7331;DHT22;3706;49.198;7.064;2023-09-08T05:15:04;12.80;99.90
7331;DHT22;3706;49.198;7.064;2023-09-08T05:17:36;12.90;99.90
7331;DHT22;3706;49.198;7.064;2023-09-08T05:20:03;13.00;99.90
7331;DHT22;3706;49.198;7.064;2023-09-08T05:22:30;13.00;99.90
7331;DHT22;3706;49.198;7.064;2023-09-08T05:24:57;13.00;99.90
7331;DHT22;3706;49.198;7.064;2023-09-08T05:27:26;13.00;99.90
7331;DHT22;3706;49.198;7.064;2023-09-08T05:29:53;13.10;99.90
7331;DHT22;3706;49.198;7.064;2023-09-08T05:32:20;13.20;99.90
7331;DHT22;3706;49.198;7.064;2023-09-08T05:34:47;13.20;99.90
7331;DHT22;3706;49.198;7.064;2023-09-08T05:37:14;13.20;99.90
7331;DHT22;3706;49.198;7.064;2023-09-08T05:39:40;13.10;99.90
7331;DHT22;3706;49.198;7.064;2023-09-08T05:42:07;13.10;99.90
7331;DHT22;3706;49.198;7.064;2023-09-08T05:44:39;13.10;99.90
7331;DHT22;3706;49.198;7.064;2023-09-08T05:47:07;13.10;99.90
7331;DHT22;3706;49.198;7.064;2023-09-08T05:49:34;13.20;99.90
7331;DHT22;3706;49.198;7.064;2023-09-08T05:52:00;13.30;99.90
7331;DHT22;3706;49.198;7.064;2023-09-08T05:54:27;13.40;99.90
7331;DHT22;3706;49.198;7.064;2023-09-08T05:56:55;13.50;99.90
7331;DHT22;3706;49.198;7.064;2023-09-08T05:59:22;13.80;99.90
7331;DHT22;3706;49.198;7.064;2023-09-08T06:01:51;14.50;99.90
7331;DHT22;3706;49.198;7.064;2023-09-08T06:04:17;15.50;99.90
7331;DHT22;3706;49.198;7.064;2023-09-08T06:06:44;16.60;99.90
7331;DHT22;3706;49.198;7.064;2023-09-08T06:09:11;17.70;99.90
7331;DHT22;3706;49.198;7.064;2023-09-08T06:11:40;18.80;99.90
7331;DHT22;3706;49.198;7.064;2023-09-08T06:14:07;19.70;99.90
7331;DHT22;3706;49.198;7.064;2023-09-08T06:16:37;20.70;99.90
7331;DHT22;3706;49.198;7.064;2023-09-08T06:19:05;21.60;99.90
7331;DHT22;3706;49.198;7.064;2023-09-08T06:21:32;22.30;99.90
7331;DHT22;3706;49.198;7.064;2023-09-08T06:23:59;23.00;99.90
7331;DHT22;3706;49.198;7.064;2023-09-08T06:26:34;23.40;99.90
7331;DHT22;3706;49.198;7.064;2023-09-08T06:29:04;23.80;99.90
7331;DHT22;3706;49.198;7.064;2023-09-08T06:31:31;24.20;99.90
7331;DHT22;3706;49.198;7.064;2023-09-08T06:33:58;24.70;99.90
7331;DHT22;3706;49.198;7.064;2023-09-08T06:36:27;25.40;99.90
7331;DHT22;3706;49.198;7.064;2023-09-08T06:38:54;26.10;99.90
7331;DHT22;3706;49.198;7.064;2023-09-08T06:41:20;26.80;99.90
7331;DHT22;3706;49.198;7.064;2023-09-08T06:43:48;27.40;99.90
7331;DHT22;3706;49.198;7.064;2023-09-08T06:46:15;28.10;99.90
7331;DHT22;3706;49.198;7.064;2023-09-08T06:48:42;28.80;99.40
7331;DHT22;3706;49.198;7.064;2023-09-08T06:51:09;29.40;97.00
7331;DHT22;3706;49.198;7.064;2023-09-08T06:53:37;29.90;95.10
7331;DHT22;3706;49.198;7.064;2023-09-08T06:56:04;30.40;93.40
7331;DHT22;3706;49.198;7.064;2023-09-08T06:58:31;30.80;92.00
7331;DHT22;3706;49.198;7.064;2023-09-08T07:00:58;31.30;90.60
7331;DHT22;3706;49.198;7.064;2023-09-08T07:03:25;31.60;88.70
7331;DHT22;3706;49.198;7.064;2023-09-08T07:05:52;32.10;86.00
7331;DHT22;3706;49.198;7.064;2023-09-08T07:08:19;32.40;84.00
7331;DHT22;3706;49.198;7.064;2023-09-08T07:10:52;32.70;82.90
7331;DHT22;3706;49.198;7.064;2023-09-08T07:13:19;33.00;79.90
7331;DHT22;3706;49.198;7.064;2023-09-08T07:15:46;33.20;79.60
7331;DHT22;3706;49.198;7.064;2023-09-08T07:18:15;33.40;78.20
7331;DHT22;3706;49.198;7.064;2023-09-08T07:20:46;33.80;77.30
7331;DHT22;3706;49.198;7.064;2023-09-08T07:23:13;34.10;76.00
7331;DHT22;3706;49.198;7.064;2023-09-08T07:25:45;34.30;74.80
7331;DHT22;3706;49.198;7.064;2023-09-08T07:28:13;34.60;73.90
7331;DHT22;3706;49.198;7.064;2023-09-08T07:30:40;34.90;72.70
7331;DHT22;3706;49.198;7.064;2023-09-08T07:33:07;35.10;72.10
7331;DHT22;3706;49.198;7.064;2023-09-08T07:35:36;35.30;71.50
7331;DHT22;3706;49.198;7.064;2023-09-08T07:38:04;35.70;70.20
7331;DHT22;3706;49.198;7.064;2023-09-08T07:40:32;36.20;68.50
7331;DHT22;3706;49.198;7.064;2023-09-08T07:42:59;36.60;67.00
7331;DHT22;3706;49.198;7.064;2023-09-08T07:45:28;36.80;66.10
7331;DHT22;3706;49.198;7.064;2023-09-08T07:47:55;37.00;64.90
7331;DHT22;3706;49.198;7.064;2023-09-08T07:50:24;37.20;64.70
7331;DHT22;3706;49.198;7.064;2023-09-08T07:52:52;37.40;64.20
7331;DHT22;3706;49.198;7.064;2023-09-08T07:55:19;37.80;62.10
7331;DHT22;3706;49.198;7.064;2023-09-08T07:57:49;38.00;61.30
7331;DHT22;3706;49.198;7.064;2023-09-08T08:00:17;38.10;60.50
7331;DHT22;3706;49.198;7.064;2023-09-08T08:02:47;38.10;60.50
7331;DHT22;3706;49.198;7.064;2023-09-08T08:05:15;38.10;60.60
7331;DHT22;3706;49.198;7.064;2023-09-08T08:07:43;38.30;59.50
7331;DHT22;3706;49.198;7.064;2023-09-08T08:10:11;38.40;59.00
7331;DHT22;3706;49.198;7.064;2023-09-08T08:12:38;38.70;58.90
7331;DHT22;3706;49.198;7.064;2023-09-08T08:15:06;38.70;58.70
7331;DHT22;3706;49.198;7.064;2023-09-08T08:17:35;38.70;58.40
7331;DHT22;3706;49.198;7.064;2023-09-08T08:20:05;38.90;57.90
7331;DHT22;3706;49.198;7.064;2023-09-08T08:22:35;39.00;57.20
7331;DHT22;3706;49.198;7.064;2023-09-08T08:25:03;39.10;56.80
7331;DHT22;3706;49.198;7.064;2023-09-08T08:27:30;38.90;57.20
7331;DHT22;3706;49.198;7.064;2023-09-08T08:29:57;38.80;56.80
7331;DHT22;3706;49.198;7.064;2023-09-08T08:32:26;38.60;57.40
7331;DHT22;3706;49.198;7.064;2023-09-08T08:34:53;38.40;57.60
7331;DHT22;3706;49.198;7.064;2023-09-08T08:37:22;38.10;58.20
7331;DHT22;3706;49.198;7.064;2023-09-08T08:39:49;37.70;58.20
7331;DHT22;3706;49.198;7.064;2023-09-08T08:42:16;37.20;59.10
7331;DHT22;3706;49.198;7.064;2023-09-08T08:44:43;37.10;59.40
7331;DHT22;3706;49.198;7.064;2023-09-08T08:47:11;37.20;59.60
7331;DHT22;3706;49.198;7.064;2023-09-08T08:49:40;37.30;59.60
7331;DHT22;3706;49.198;7.064;2023-09-08T08:52:09;37.30;59.30
7331;DHT22;3706;49.198;7.064;2023-09-08T08:54:38;36.80;59.90
7331;DHT22;3706;49.198;7.064;2023-09-08T08:57:05;36.50;61.20
7331;DHT22;3706;49.198;7.064;2023-09-08T08:59:33;36.50;61.20
7331;DHT22;3706;49.198;7.064;2023-09-08T09:02:02;36.40;61.10
7331;DHT22;3706;49.198;7.064;2023-09-08T09:04:29;36.30;62.00
7331;DHT22;3706;49.198;7.064;2023-09-08T09:06:57;36.30;62.00
7331;DHT22;3706;49.198;7.064;2023-09-08T09:09:25;36.40;61.90
7331;DHT22;3706;49.198;7.064;2023-09-08T09:11:54;36.60;61.70
7331;DHT22;3706;49.198;7.064;2023-09-08T09:14:21;37.10;61.00
7331;DHT22;3706;49.198;7.064;2023-09-08T09:16:49;37.70;60.20
7331;DHT22;3706;49.198;7.064;2023-09-08T09:19:20;38.20;59.60
7331;DHT22;3706;49.198;7.064;2023-09-08T09:21:53;38.30;59.00
7331;DHT22;3706;49.198;7.064;2023-09-08T09:24:29;38.00;59.60
7331;DHT22;3706;49.198;7.064;2023-09-08T09:26:57;37.70;60.00
7331;DHT22;3706;49.198;7.064;2023-09-08T09:29:24;37.50;60.20
7331;DHT22;3706;49.198;7.064;2023-09-08T09:31:52;37.40;60.60
7331;DHT22;3706;49.198;7.064;2023-09-08T09:34:20;37.30;60.60
7331;DHT22;3706;49.198;7.064;2023-09-08T09:36:48;37.50;60.80
7331;DHT22;3706;49.198;7.064;2023-09-08T09:39:19;37.60;60.70
7331;DHT22;3706;49.198;7.064;2023-09-08T09:41:46;37.70;61.00
7331;DHT22;3706;49.198;7.064;2023-09-08T09:44:16;38.10;60.60
7331;DHT22;3706;49.198;7.064;2023-09-08T09:46:46;38.60;59.70
7331;DHT22;3706;49.198;7.064;2023-09-08T09:49:14;38.70;59.00
7331;DHT22;3706;49.198;7.064;2023-09-08T09:51:43;39.00;58.60
7331;DHT22;3706;49.198;7.064;2023-09-08T09:54:11;39.20;58.50
7331;DHT22;3706;49.198;7.064;2023-09-08T09:56:39;39.40;58.20
7331;DHT22;3706;49.198;7.064;2023-09-08T09:59:08;39.70;58.10
7331;DHT22;3706;49.198;7.064;2023-09-08T10:01:37;39.80;57.10
7331;DHT22;3706;49.198;7.064;2023-09-08T10:04:05;39.40;57.90
7331;DHT22;3706;49.198;7.064;2023-09-08T10:06:33;39.10;58.10
7331;DHT22;3706;49.198;7.064;2023-09-08T10:09:00;38.80;58.90
7331;DHT22;3706;49.198;7.064;2023-09-08T10:11:35;38.90;59.00
7331;DHT22;3706;49.198;7.064;2023-09-08T10:14:07;38.90;58.80
7331;DHT22;3706;49.198;7.064;2023-09-08T10:16:39;38.70;58.70
7331;DHT22;3706;49.198;7.064;2023-09-08T10:19:09;38.50;59.20
7331;DHT22;3706;49.198;7.064;2023-09-08T10:21:39;38.40;59.60
7331;DHT22;3706;49.198;7.064;2023-09-08T10:24:14;38.50;59.40
7331;DHT22;3706;49.198;7.064;2023-09-08T10:26:44;38.50;59.10
7331;DHT22;3706;49.198;7.064;2023-09-08T10:29:12;38.40;59.50
7331;DHT22;3706;49.198;7.064;2023-09-08T10:31:42;38.70;59.30
7331;DHT22;3706;49.198;7.064;2023-09-08T10:34:10;39.00;58.80
7331;DHT22;3706;49.198;7.064;2023-09-08T10:36:37;39.20;58.30
7331;DHT22;3706;49.198;7.064;2023-09-08T10:39:30;39.40;58.30
7331;DHT22;3706;49.198;7.064;2023-09-08T10:42:19;39.20;58.00
7331;DHT22;3706;49.198;7.064;2023-09-08T10:44:56;38.90;59.00
7331;DHT22;3706;49.198;7.064;2023-09-08T10:47:25;39.00;59.10
7331;DHT22;3706;49.198;7.064;2023-09-08T10:49:53;39.10;58.40
7331;DHT22;3706;49.198;7.064;2023-09-08T10:52:23;39.10;58.50
7331;DHT22;3706;49.198;7.064;2023-09-08T10:54:52;39.40;58.60
7331;DHT22;3706;49.198;7.064;2023-09-08T10:57:21;39.70;58.30
7331;DHT22;3706;49.198;7.064;2023-09-08T10:59:51;40.00;57.10
7331;DHT22;3706;49.198;7.064;2023-09-08T11:02:34;40.00;56.80
7331;DHT22;3706;49.198;7.064;2023-09-08T11:05:01;40.00;57.10
7331;DHT22;3706;49.198;7.064;2023-09-08T11:07:30;40.20;56.30
7331;DHT22;3706;49.198;7.064;2023-09-08T11:09:58;40.00;56.60
7331;DHT22;3706;49.198;7.064;2023-09-08T11:12:27;39.90;56.90
7331;DHT22;3706;49.198;7.064;2023-09-08T11:14:54;39.80;56.90
7331;DHT22;3706;49.198;7.064;2023-09-08T11:17:24;40.00;57.00
7331;DHT22;3706;49.198;7.064;2023-09-08T11:19:53;40.40;56.90
7331;DHT22;3706;49.198;7.064;2023-09-08T11:22:22;40.70;56.80
7331;DHT22;3706;49.198;7.064;2023-09-08T11:24:51;41.00;56.00
7331;DHT22;3706;49.198;7.064;2023-09-08T11:27:18;41.10;55.40
7331;DHT22;3706;49.198;7.064;2023-09-08T11:29:45;41.10;54.90
7331;DHT22;3706;49.198;7.064;2023-09-08T11:32:12;41.00;55.10
7331;DHT22;3706;49.198;7.064;2023-09-08T11:34:39;41.00;54.90
7331;DHT22;3706;49.198;7.064;2023-09-08T11:37:09;41.00;55.30
7331;DHT22;3706;49.198;7.064;2023-09-08T11:39:39;41.10;55.30
7331;DHT22;3706;49.198;7.064;2023-09-08T11:42:07;41.30;55.20
7331;DHT22;3706;49.198;7.064;2023-09-08T11:44:35;41.40;54.70
7331;DHT22;3706;49.198;7.064;2023-09-08T11:47:02;41.60;53.60
7331;DHT22;3706;49.198;7.064;2023-09-08T11:49:34;41.10;54.00
7331;DHT22;3706;49.198;7.064;2023-09-08T11:52:01;40.70;54.50
7331;DHT22;3706;49.198;7.064;2023-09-08T11:54:31;40.50;55.10
7331;DHT22;3706;49.198;7.064;2023-09-08T11:56:59;40.60;55.70
7331;DHT22;3706;49.198;7.064;2023-09-08T11:59:27;40.70;55.60
7331;DHT22;3706;49.198;7.064;2023-09-08T12:01:55;40.90;54.40
7331;DHT22;3706;49.198;7.064;2023-09-08T12:04:23;41.10;54.10
7331;DHT22;3706;49.198;7.064;2023-09-08T12:06:51;41.30;53.60
7331;DHT22;3706;49.198;7.064;2023-09-08T12:09:19;41.60;53.20
7331;DHT22;3706;49.198;7.064;2023-09-08T12:11:50;41.80;53.40
7331;DHT22;3706;49.198;7.064;2023-09-08T12:14:17;41.90;52.90
7331;DHT22;3706;49.198;7.064;2023-09-08T12:16:44;42.00;53.30
7331;DHT22;3706;49.198;7.064;2023-09-08T12:19:29;41.80;52.90
7331;DHT22;3706;49.198;7.064;2023-09-08T12:21:59;41.40;53.60
7331;DHT22;3706;49.198;7.064;2023-09-08T12:24:56;41.20;54.30
7331;DHT22;3706;49.198;7.064;2023-09-08T12:27:26;40.90;55.10
7331;DHT22;3706;49.198;7.064;2023-09-08T12:29:57;40.80;54.50
7331;DHT22;3706;49.198;7.064;2023-09-08T12:32:29;40.60;54.80
7331;DHT22;3706;49.198;7.064;2023-09-08T12:34:57;40.30;55.30
7331;DHT22;3706;49.198;7.064;2023-09-08T12:37:27;40.10;55.50
7331;DHT22;3706;49.198;7.064;2023-09-08T12:39:54;39.80;56.10
7331;DHT22;3706;49.198;7.064;2023-09-08T12:42:28;39.50;56.50
7331;DHT22;3706;49.198;7.064;2023-09-08T12:44:55;39.30;57.10
7331;DHT22;3706;49.198;7.064;2023-09-08T12:47:23;39.10;57.60
7331;DHT22;3706;49.198;7.064;2023-09-08T12:49:50;39.10;57.80
7331;DHT22;3706;49.198;7.064;2023-09-08T12:52:17;39.10;58.00
7331;DHT22;3706;49.198;7.064;2023-09-08T12:54:44;39.20;57.80
7331;DHT22;3706;49.198;7.064;2023-09-08T12:57:11;39.30;56.30
7331;DHT22;3706;49.198;7.064;2023-09-08T12:59:39;39.20;56.20
7331;DHT22;3706;49.198;7.064;2023-09-08T13:02:06;38.80;56.00
7331;DHT22;3706;49.198;7.064;2023-09-08T13:04:33;38.20;57.00
7331;DHT22;3706;49.198;7.064;2023-09-08T13:07:00;38.00;57.90
7331;DHT22;3706;49.198;7.064;2023-09-08T13:09:27;37.90;57.30
7331;DHT22;3706;49.198;7.064;2023-09-08T13:11:54;37.50;57.50
7331;DHT22;3706;49.198;7.064;2023-09-08T13:14:26;37.30;57.20
7331;DHT22;3706;49.198;7.064;2023-09-08T13:16:55;37.00;58.40
7331;DHT22;3706;49.198;7.064;2023-09-08T13:19:22;36.80;58.60
7331;DHT22;3706;49.198;7.064;2023-09-08T13:21:52;36.80;58.50
7331;DHT22;3706;49.198;7.064;2023-09-08T13:24:19;36.80;58.20
7331;DHT22;3706;49.198;7.064;2023-09-08T13:26:49;36.70;59.50
7331;DHT22;3706;49.198;7.064;2023-09-08T13:29:17;36.70;59.60
7331;DHT22;3706;49.198;7.064;2023-09-08T13:31:44;36.60;59.60
7331;DHT22;3706;49.198;7.064;2023-09-08T13:34:12;36.30;59.70
7331;DHT22;3706;49.198;7.064;2023-09-08T13:36:39;36.10;60.50
7331;DHT22;3706;49.198;7.064;2023-09-08T13:39:06;35.80;61.30
7331;DHT22;3706;49.198;7.064;2023-09-08T13:41:47;35.70;61.80
7331;DHT22;3706;49.198;7.064;2023-09-08T13:44:22;35.60;62.20
7331;DHT22;3706;49.198;7.064;2023-09-08T13:46:49;35.50;62.10
7331;DHT22;3706;49.198;7.064;2023-09-08T13:49:18;35.30;62.10
7331;DHT22;3706;49.198;7.064;2023-09-08T13:51:45;35.20;62.50
7331;DHT22;3706;49.198;7.064;2023-09-08T13:54:15;35.10;64.00
7331;DHT22;3706;49.198;7.064;2023-09-08T13:56:42;35.00;64.00
7331;DHT22;3706;49.198;7.064;2023-09-08T13:59:09;34.90;62.80
7331;DHT22;3706;49.198;7.064;2023-09-08T14:01:37;34.80;63.50
7331;DHT22;3706;49.198;7.064;2023-09-08T14:04:04;34.80;64.30
7331;DHT22;3706;49.198;7.064;2023-09-08T14:06:33;34.80;64.20
7331;DHT22;3706;49.198;7.064;2023-09-08T14:09:02;34.80;64.30
7331;DHT22;3706;49.198;7.064;2023-09-08T14:11:30;34.60;64.50
7331;DHT22;3706;49.198;7.064;2023-09-08T14:13:57;34.50;66.20
7331;DHT22;3706;49.198;7.064;2023-09-08T14:16:26;34.50;66.00
7331;DHT22;3706;49.198;7.064;2023-09-08T14:18:57;34.50;65.30
7331;DHT22;3706;49.198;7.064;2023-09-08T14:24:22;34.30;65.70
7331;DHT22;3706;49.198;7.064;2023-09-08T14:26:51;34.00;65.50
7331;DHT22;3706;49.198;7.064;2023-09-08T14:29:18;33.70;65.40
7331;DHT22;3706;49.198;7.064;2023-09-08T14:31:45;33.60;65.60
7331;DHT22;3706;49.198;7.064;2023-09-08T14:34:12;33.50;65.30
7331;DHT22;3706;49.198;7.064;2023-09-08T14:36:40;33.40;65.90
7331;DHT22;3706;49.198;7.064;2023-09-08T14:39:10;33.20;64.70
7331;DHT22;3706;49.198;7.064;2023-09-08T14:41:37;33.10;65.70
7331;DHT22;3706;49.198;7.064;2023-09-08T14:44:04;32.90;67.30
7331;DHT22;3706;49.198;7.064;2023-09-08T14:46:32;32.80;67.80
7331;DHT22;3706;49.198;7.064;2023-09-08T14:49:01;32.60;67.00
7331;DHT22;3706;49.198;7.064;2023-09-08T14:51:29;32.50;67.50
7331;DHT22;3706;49.198;7.064;2023-09-08T14:53:59;32.40;68.30
7331;DHT22;3706;49.198;7.064;2023-09-08T14:56:27;32.40;68.40
7331;DHT22;3706;49.198;7.064;2023-09-08T14:58:55;32.30;68.00
7331;DHT22;3706;49.198;7.064;2023-09-08T15:01:29;32.30;68.40
7331;DHT22;3706;49.198;7.064;2023-09-08T15:03:57;32.20;69.20
7331;DHT22;3706;49.198;7.064;2023-09-08T15:06:24;32.20;68.80
7331;DHT22;3706;49.198;7.064;2023-09-08T15:08:51;32.10;68.80
7331;DHT22;3706;49.198;7.064;2023-09-08T15:11:18;32.00;69.40
7331;DHT22;3706;49.198;7.064;2023-09-08T15:13:47;31.90;70.00
7331;DHT22;3706;49.198;7.064;2023-09-08T15:16:14;31.70;70.60
7331;DHT22;3706;49.198;7.064;2023-09-08T15:18:45;31.70;71.00
7331;DHT22;3706;49.198;7.064;2023-09-08T15:21:14;31.50;71.70
7331;DHT22;3706;49.198;7.064;2023-09-08T15:23:41;31.40;72.20
7331;DHT22;3706;49.198;7.064;2023-09-08T15:26:08;31.30;72.60
7331;DHT22;3706;49.198;7.064;2023-09-08T15:28:35;31.20;72.50
7331;DHT22;3706;49.198;7.064;2023-09-08T15:31:05;31.10;72.20
7331;DHT22;3706;49.198;7.064;2023-09-08T15:33:37;31.00;72.80
7331;DHT22;3706;49.198;7.064;2023-09-08T15:36:05;30.90;72.80
7331;DHT22;3706;49.198;7.064;2023-09-08T15:38:32;30.70;74.00
7331;DHT22;3706;49.198;7.064;2023-09-08T15:41:14;30.50;75.00
7331;DHT22;3706;49.198;7.064;2023-09-08T15:43:46;30.30;75.60
7331;DHT22;3706;49.198;7.064;2023-09-08T15:46:15;30.10;76.10
7331;DHT22;3706;49.198;7.064;2023-09-08T15:48:42;29.90;77.00
7331;DHT22;3706;49.198;7.064;2023-09-08T15:51:10;29.70;77.40
7331;DHT22;3706;49.198;7.064;2023-09-08T15:53:37;29.50;78.00
7331;DHT22;3706;49.198;7.064;2023-09-08T15:56:05;29.30;78.80
7331;DHT22;3706;49.198;7.064;2023-09-08T15:58:35;29.10;79.30
7331;DHT22;3706;49.198;7.064;2023-09-08T16:01:03;28.90;78.70
7331;DHT22;3706;49.198;7.064;2023-09-08T16:03:33;28.90;79.80
7331;DHT22;3706;49.198;7.064;2023-09-08T16:06:00;28.70;80.00
7331;DHT22;3706;49.198;7.064;2023-09-08T16:08:27;28.70;80.30
7331;DHT22;3706;49.198;7.064;2023-09-08T16:10:54;28.50;80.60
7331;DHT22;3706;49.198;7.064;2023-09-08T16:13:22;28.40;80.80